sensor_id;sensor_type;location;lat;lon;timestamp;P1;durP1;ratioP1;P2;durP2;ratioP2
24961;SDS011;12992;50.884;13.668;2022-08-19T00:01:20;32.30;;;26.73;;
24961;SDS011;12992;50.884;13.668;2022-08-19T00:03:46;34.00;;;25.10;;
24961;SDS011;12992;50.884;13.668;2022-08-19T00:06:11;32.53;;;24.70;;
24961;SDS011;12992;50.884;13.668;2022-08-19T00:08:37;34.75;;;25.48;;
24961;SDS011;12992;50.884;13.668;2022-08-19T00:11:02;32.97;;;26.00;;
24961;SDS011;12992;50.884;13.668;2022-08-19T00:13:27;32.75;;;24.70;;
24961;SDS011;12992;50.884;13.668;2022-08-19T00:15:54;32.40;;;24.77;;
24961;SDS011;12992;50.884;13.668;2022-08-19T00:18:19;30.90;;;24.90;;
24961;SDS011;12992;50.884;13.668;2022-08-19T00:20:45;33.90;;;25.30;;
24961;SDS011;12992;50.884;13.668;2022-08-19T00:23:10;31.60;;;25.02;;
24961;SDS011;12992;50.884;13.668;2022-08-19T00:25:36;30.70;;;24.13;;
24961;SDS011;12992;50.884;13.668;2022-08-19T00:28:01;28.92;;;24.27;;
24961;SDS011;12992;50.884;13.668;2022-08-19T00:30:27;32.42;;;23.98;;
24961;SDS011;12992;50.884;13.668;2022-08-19T00:32:53;33.33;;;24.75;;
24961;SDS011;12992;50.884;13.668;2022-08-19T00:35:21;33.08;;;24.90;;
24961;SDS011;12992;50.884;13.668;2022-08-19T00:37:48;28.80;;;23.83;;
24961;SDS011;12992;50.884;13.668;2022-08-19T00:40:14;33.70;;;25.10;;
24961;SDS011;12992;50.884;13.668;2022-08-19T00:42:41;34.67;;;26.05;;
24961;SDS011;12992;50.884;13.668;2022-08-19T00:45:14;28.88;;;23.30;;
24961;SDS011;12992;50.884;13.668;2022-08-19T00:47:42;33.05;;;24.88;;
24961;SDS011;12992;50.884;13.668;2022-08-19T00:50:08;30.00;;;23.63;;
24961;SDS011;12992;50.884;13.668;2022-08-19T00:52:37;31.08;;;24.17;;
24961;SDS011;12992;50.884;13.668;2022-08-19T00:55:10;25.85;;;22.50;;
24961;SDS011;12992;50.884;13.668;2022-08-19T00:57:41;27.65;;;22.85;;
24961;SDS011;12992;50.884;13.668;2022-08-19T01:00:11;30.33;;;24.17;;
24961;SDS011;12992;50.884;13.668;2022-08-19T01:02:39;27.25;;;22.33;;
24961;SDS011;12992;50.884;13.668;2022-08-19T01:05:06;32.67;;;24.02;;
24961;SDS011;12992;50.884;13.668;2022-08-19T01:07:35;27.25;;;22.95;;
24961;SDS011;12992;50.884;13.668;2022-08-19T01:10:04;30.52;;;22.48;;
24961;SDS011;12992;50.884;13.668;2022-08-19T01:12:32;29.85;;;22.75;;
24961;SDS011;12992;50.884;13.668;2022-08-19T01:14:58;28.83;;;22.65;;
24961;SDS011;12992;50.884;13.668;2022-08-19T01:17:24;34.30;;;23.98;;
24961;SDS011;12992;50.884;13.668;2022-08-19T01:19:50;29.52;;;23.42;;
24961;SDS011;12992;50.884;13.668;2022-08-19T01:22:30;30.17;;;23.55;;
24961;SDS011;12992;50.884;13.668;2022-08-19T01:25:00;27.98;;;22.38;;
24961;SDS011;12992;50.884;13.668;2022-08-19T01:27:26;30.85;;;23.42;;
24961;SDS011;12992;50.884;13.668;2022-08-19T01:29:51;27.90;;;23.08;;
24961;SDS011;12992;50.884;13.668;2022-08-19T01:32:17;27.75;;;23.00;;
24961;SDS011;12992;50.884;13.668;2022-08-19T01:34:44;34.28;;;24.35;;
24961;SDS011;12992;50.884;13.668;2022-08-19T01:37:11;29.83;;;23.38;;
24961;SDS011;12992;50.884;13.668;2022-08-19T01:39:39;26.55;;;22.35;;
24961;SDS011;12992;50.884;13.668;2022-08-19T01:42:05;32.17;;;24.98;;
24961;SDS011;12992;50.884;13.668;2022-08-19T01:44:33;32.72;;;24.92;;
24961;SDS011;12992;50.884;13.668;2022-08-19T01:47:01;34.67;;;25.25;;
24961;SDS011;12992;50.884;13.668;2022-08-19T01:49:26;32.50;;;24.77;;
24961;SDS011;12992;50.884;13.668;2022-08-19T01:51:52;33.17;;;24.30;;
24961;SDS011;12992;50.884;13.668;2022-08-19T01:54:19;32.05;;;25.00;;
24961;SDS011;12992;50.884;13.668;2022-08-19T01:56:46;32.40;;;25.10;;
24961;SDS011;12992;50.884;13.668;2022-08-19T01:59:13;31.52;;;25.70;;
24961;SDS011;12992;50.884;13.668;2022-08-19T02:01:42;32.03;;;25.17;;
24961;SDS011;12992;50.884;13.668;2022-08-19T02:04:08;30.02;;;25.08;;
24961;SDS011;12992;50.884;13.668;2022-08-19T02:06:33;34.15;;;26.23;;
24961;SDS011;12992;50.884;13.668;2022-08-19T02:08:59;30.17;;;23.98;;
24961;SDS011;12992;50.884;13.668;2022-08-19T02:11:26;30.77;;;25.42;;
24961;SDS011;12992;50.884;13.668;2022-08-19T02:13:54;29.48;;;24.40;;
24961;SDS011;12992;50.884;13.668;2022-08-19T02:16:20;30.33;;;24.73;;
24961;SDS011;12992;50.884;13.668;2022-08-19T02:18:46;32.30;;;25.02;;
24961;SDS011;12992;50.884;13.668;2022-08-19T02:21:18;30.30;;;24.67;;
24961;SDS011;12992;50.884;13.668;2022-08-19T02:23:45;26.80;;;23.27;;
24961;SDS011;12992;50.884;13.668;2022-08-19T02:26:11;30.00;;;23.48;;
24961;SDS011;12992;50.884;13.668;2022-08-19T02:28:37;27.92;;;23.60;;
24961;SDS011;12992;50.884;13.668;2022-08-19T02:31:03;30.52;;;23.33;;
24961;SDS011;12992;50.884;13.668;2022-08-19T02:33:28;28.08;;;22.85;;
24961;SDS011;12992;50.884;13.668;2022-08-19T02:35:54;29.98;;;23.17;;
24961;SDS011;12992;50.884;13.668;2022-08-19T02:38:20;33.20;;;24.58;;
24961;SDS011;12992;50.884;13.668;2022-08-19T02:40:59;28.65;;;23.85;;
24961;SDS011;12992;50.884;13.668;2022-08-19T02:43:28;30.90;;;22.83;;
24961;SDS011;12992;50.884;13.668;2022-08-19T02:46:01;25.83;;;22.10;;
24961;SDS011;12992;50.884;13.668;2022-08-19T02:48:27;27.25;;;23.35;;
24961;SDS011;12992;50.884;13.668;2022-08-19T02:50:53;29.73;;;23.15;;
24961;SDS011;12992;50.884;13.668;2022-08-19T02:53:28;28.75;;;23.25;;
24961;SDS011;12992;50.884;13.668;2022-08-19T02:55:54;29.95;;;22.33;;
24961;SDS011;12992;50.884;13.668;2022-08-19T02:58:20;29.45;;;24.40;;
24961;SDS011;12992;50.884;13.668;2022-08-19T03:00:48;28.85;;;24.02;;
24961;SDS011;12992;50.884;13.668;2022-08-19T03:03:16;29.25;;;23.80;;
24961;SDS011;12992;50.884;13.668;2022-08-19T03:05:43;30.63;;;24.83;;
24961;SDS011;12992;50.884;13.668;2022-08-19T03:08:09;30.52;;;23.50;;
24961;SDS011;12992;50.884;13.668;2022-08-19T03:10:46;31.83;;;24.70;;
24961;SDS011;12992;50.884;13.668;2022-08-19T03:13:13;27.65;;;23.88;;
24961;SDS011;12992;50.884;13.668;2022-08-19T03:15:41;31.08;;;25.05;;
24961;SDS011;12992;50.884;13.668;2022-08-19T03:18:11;30.85;;;24.60;;
24961;SDS011;12992;50.884;13.668;2022-08-19T03:20:41;33.75;;;25.63;;
24961;SDS011;12992;50.884;13.668;2022-08-19T03:23:08;33.55;;;26.15;;
24961;SDS011;12992;50.884;13.668;2022-08-19T03:25:38;32.75;;;25.30;;
24961;SDS011;12992;50.884;13.668;2022-08-19T03:28:08;34.75;;;26.13;;
24961;SDS011;12992;50.884;13.668;2022-08-19T03:30:35;34.03;;;25.48;;
24961;SDS011;12992;50.884;13.668;2022-08-19T03:33:00;35.22;;;25.90;;
24961;SDS011;12992;50.884;13.668;2022-08-19T03:35:27;34.45;;;26.60;;
24961;SDS011;12992;50.884;13.668;2022-08-19T03:37:52;33.20;;;26.17;;
24961;SDS011;12992;50.884;13.668;2022-08-19T03:40:18;32.35;;;27.25;;
24961;SDS011;12992;50.884;13.668;2022-08-19T03:42:43;31.98;;;26.98;;
24961;SDS011;12992;50.884;13.668;2022-08-19T03:45:11;35.92;;;27.13;;
24961;SDS011;12992;50.884;13.668;2022-08-19T03:47:36;32.50;;;26.20;;
24961;SDS011;12992;50.884;13.668;2022-08-19T03:50:03;33.60;;;26.98;;
24961;SDS011;12992;50.884;13.668;2022-08-19T03:52:29;33.70;;;27.15;;
24961;SDS011;12992;50.884;13.668;2022-08-19T03:54:54;36.88;;;27.00;;
24961;SDS011;12992;50.884;13.668;2022-08-19T03:57:20;33.03;;;28.15;;
24961;SDS011;12992;50.884;13.668;2022-08-19T03:59:45;36.08;;;28.38;;
24961;SDS011;12992;50.884;13.668;2022-08-19T04:02:11;36.00;;;27.77;;
24961;SDS011;12992;50.884;13.668;2022-08-19T04:04:38;37.45;;;27.58;;
24961;SDS011;12992;50.884;13.668;2022-08-19T04:07:04;37.35;;;27.65;;
24961;SDS011;12992;50.884;13.668;2022-08-19T04:09:30;36.10;;;27.73;;
24961;SDS011;12992;50.884;13.668;2022-08-19T04:11:57;37.80;;;28.08;;
24961;SDS011;12992;50.884;13.668;2022-08-19T04:14:24;39.05;;;28.38;;
24961;SDS011;12992;50.884;13.668;2022-08-19T04:16:51;36.10;;;28.20;;
24961;SDS011;12992;50.884;13.668;2022-08-19T04:19:17;35.85;;;28.65;;
24961;SDS011;12992;50.884;13.668;2022-08-19T04:21:44;40.47;;;28.73;;
24961;SDS011;12992;50.884;13.668;2022-08-19T04:24:11;40.72;;;29.80;;
24961;SDS011;12992;50.884;13.668;2022-08-19T04:26:37;36.13;;;28.08;;
24961;SDS011;12992;50.884;13.668;2022-08-19T04:29:05;39.20;;;28.27;;
24961;SDS011;12992;50.884;13.668;2022-08-19T04:31:33;36.88;;;27.48;;
24961;SDS011;12992;50.884;13.668;2022-08-19T04:34:03;36.75;;;28.33;;
24961;SDS011;12992;50.884;13.668;2022-08-19T04:36:31;36.58;;;27.20;;
24961;SDS011;12992;50.884;13.668;2022-08-19T04:38:59;39.60;;;30.13;;
24961;SDS011;12992;50.884;13.668;2022-08-19T04:41:28;39.80;;;29.65;;
24961;SDS011;12992;50.884;13.668;2022-08-19T04:44:33;38.33;;;28.33;;
24961;SDS011;12992;50.884;13.668;2022-08-19T04:47:00;34.90;;;27.27;;
24961;SDS011;12992;50.884;13.668;2022-08-19T04:49:25;40.70;;;30.35;;
24961;SDS011;12992;50.884;13.668;2022-08-19T04:51:52;39.72;;;28.98;;
24961;SDS011;12992;50.884;13.668;2022-08-19T04:54:19;41.58;;;29.30;;
24961;SDS011;12992;50.884;13.668;2022-08-19T04:56:47;45.17;;;29.90;;
24961;SDS011;12992;50.884;13.668;2022-08-19T04:59:14;44.80;;;30.27;;
24961;SDS011;12992;50.884;13.668;2022-08-19T05:01:42;37.45;;;28.75;;
24961;SDS011;12992;50.884;13.668;2022-08-19T05:04:07;34.97;;;28.20;;
24961;SDS011;12992;50.884;13.668;2022-08-19T05:06:33;39.78;;;29.77;;
24961;SDS011;12992;50.884;13.668;2022-08-19T05:09:03;37.13;;;27.77;;
24961;SDS011;12992;50.884;13.668;2022-08-19T05:11:32;42.75;;;29.05;;
24961;SDS011;12992;50.884;13.668;2022-08-19T05:14:00;38.67;;;29.13;;
24961;SDS011;12992;50.884;13.668;2022-08-19T05:16:26;38.95;;;30.33;;
24961;SDS011;12992;50.884;13.668;2022-08-19T05:18:52;39.83;;;30.95;;
24961;SDS011;12992;50.884;13.668;2022-08-19T05:21:37;40.85;;;31.45;;
24961;SDS011;12992;50.884;13.668;2022-08-19T05:24:22;41.70;;;30.48;;
24961;SDS011;12992;50.884;13.668;2022-08-19T05:26:49;39.28;;;30.38;;
24961;SDS011;12992;50.884;13.668;2022-08-19T05:29:17;42.22;;;31.83;;
24961;SDS011;12992;50.884;13.668;2022-08-19T05:31:44;41.72;;;29.90;;
24961;SDS011;12992;50.884;13.668;2022-08-19T05:34:11;43.72;;;31.58;;
24961;SDS011;12992;50.884;13.668;2022-08-19T05:36:39;39.65;;;29.75;;
24961;SDS011;12992;50.884;13.668;2022-08-19T05:39:11;40.58;;;29.58;;
24961;SDS011;12992;50.884;13.668;2022-08-19T05:41:42;38.55;;;28.40;;
24961;SDS011;12992;50.884;13.668;2022-08-19T05:44:09;39.20;;;28.48;;
24961;SDS011;12992;50.884;13.668;2022-08-19T05:46:35;36.10;;;28.05;;
24961;SDS011;12992;50.884;13.668;2022-08-19T05:49:02;36.28;;;27.92;;
24961;SDS011;12992;50.884;13.668;2022-08-19T05:51:29;35.72;;;27.35;;
24961;SDS011;12992;50.884;13.668;2022-08-19T05:53:54;33.42;;;26.00;;
24961;SDS011;12992;50.884;13.668;2022-08-19T05:56:20;31.67;;;25.10;;
24961;SDS011;12992;50.884;13.668;2022-08-19T05:58:45;35.35;;;26.77;;
24961;SDS011;12992;50.884;13.668;2022-08-19T06:01:13;35.22;;;26.70;;
24961;SDS011;12992;50.884;13.668;2022-08-19T06:03:40;32.47;;;25.70;;
24961;SDS011;12992;50.884;13.668;2022-08-19T06:06:07;35.35;;;26.08;;
24961;SDS011;12992;50.884;13.668;2022-08-19T06:08:34;33.22;;;24.83;;
24961;SDS011;12992;50.884;13.668;2022-08-19T06:13:51;34.25;;;24.30;;
24961;SDS011;12992;50.884;13.668;2022-08-19T06:16:21;29.80;;;23.58;;
24961;SDS011;12992;50.884;13.668;2022-08-19T06:18:50;27.65;;;20.77;;
24961;SDS011;12992;50.884;13.668;2022-08-19T06:21:18;25.20;;;19.48;;
24961;SDS011;12992;50.884;13.668;2022-08-19T06:23:48;26.00;;;19.58;;
24961;SDS011;12992;50.884;13.668;2022-08-19T06:26:14;27.00;;;20.08;;
24961;SDS011;12992;50.884;13.668;2022-08-19T06:28:41;24.60;;;20.58;;
24961;SDS011;12992;50.884;13.668;2022-08-19T06:31:10;26.35;;;19.75;;
24961;SDS011;12992;50.884;13.668;2022-08-19T06:33:38;25.38;;;19.52;;
24961;SDS011;12992;50.884;13.668;2022-08-19T06:36:04;23.58;;;17.90;;
24961;SDS011;12992;50.884;13.668;2022-08-19T06:38:30;21.48;;;18.05;;
24961;SDS011;12992;50.884;13.668;2022-08-19T06:41:02;21.73;;;19.02;;
24961;SDS011;12992;50.884;13.668;2022-08-19T06:43:29;24.25;;;18.90;;
24961;SDS011;12992;50.884;13.668;2022-08-19T06:45:54;22.38;;;19.25;;
24961;SDS011;12992;50.884;13.668;2022-08-19T06:48:20;27.15;;;19.45;;
24961;SDS011;12992;50.884;13.668;2022-08-19T06:50:45;22.85;;;18.13;;
24961;SDS011;12992;50.884;13.668;2022-08-19T06:53:10;25.35;;;19.10;;
24961;SDS011;12992;50.884;13.668;2022-08-19T06:55:36;22.83;;;18.88;;
24961;SDS011;12992;50.884;13.668;2022-08-19T06:58:02;22.33;;;18.10;;
24961;SDS011;12992;50.884;13.668;2022-08-19T07:00:29;23.85;;;18.30;;
24961;SDS011;12992;50.884;13.668;2022-08-19T07:02:54;23.98;;;18.52;;
24961;SDS011;12992;50.884;13.668;2022-08-19T07:05:19;22.90;;;18.30;;
24961;SDS011;12992;50.884;13.668;2022-08-19T07:07:45;22.20;;;17.65;;
24961;SDS011;12992;50.884;13.668;2022-08-19T07:10:10;22.73;;;18.13;;
24961;SDS011;12992;50.884;13.668;2022-08-19T07:12:36;24.85;;;18.17;;
24961;SDS011;12992;50.884;13.668;2022-08-19T07:15:03;20.58;;;16.90;;
24961;SDS011;12992;50.884;13.668;2022-08-19T07:17:30;23.20;;;18.15;;
24961;SDS011;12992;50.884;13.668;2022-08-19T07:19:56;23.90;;;17.92;;
24961;SDS011;12992;50.884;13.668;2022-08-19T07:22:21;23.00;;;17.65;;
24961;SDS011;12992;50.884;13.668;2022-08-19T07:24:50;24.00;;;19.63;;
24961;SDS011;12992;50.884;13.668;2022-08-19T07:27:16;26.52;;;19.02;;
24961;SDS011;12992;50.884;13.668;2022-08-19T07:29:41;23.35;;;18.73;;
24961;SDS011;12992;50.884;13.668;2022-08-19T07:32:07;24.08;;;18.77;;
24961;SDS011;12992;50.884;13.668;2022-08-19T07:34:34;23.15;;;18.40;;
24961;SDS011;12992;50.884;13.668;2022-08-19T07:37:02;23.67;;;18.75;;
24961;SDS011;12992;50.884;13.668;2022-08-19T07:39:29;27.08;;;19.77;;
24961;SDS011;12992;50.884;13.668;2022-08-19T07:41:56;22.38;;;18.23;;
24961;SDS011;12992;50.884;13.668;2022-08-19T07:44:24;24.02;;;18.63;;
24961;SDS011;12992;50.884;13.668;2022-08-19T07:46:50;23.98;;;19.83;;
24961;SDS011;12992;50.884;13.668;2022-08-19T07:49:19;24.52;;;18.80;;
24961;SDS011;12992;50.884;13.668;2022-08-19T07:51:49;25.80;;;20.33;;
24961;SDS011;12992;50.884;13.668;2022-08-19T07:54:22;27.42;;;20.20;;
24961;SDS011;12992;50.884;13.668;2022-08-19T07:56:49;27.58;;;20.65;;
24961;SDS011;12992;50.884;13.668;2022-08-19T07:59:15;29.38;;;21.05;;
24961;SDS011;12992;50.884;13.668;2022-08-19T08:01:42;28.75;;;21.25;;
24961;SDS011;12992;50.884;13.668;2022-08-19T08:04:09;29.50;;;20.70;;
24961;SDS011;12992;50.884;13.668;2022-08-19T08:06:53;28.60;;;20.42;;
24961;SDS011;12992;50.884;13.668;2022-08-19T08:09:38;29.20;;;20.40;;
24961;SDS011;12992;50.884;13.668;2022-08-19T08:12:10;26.90;;;20.17;;
24961;SDS011;12992;50.884;13.668;2022-08-19T08:14:41;29.77;;;21.13;;
24961;SDS011;12992;50.884;13.668;2022-08-19T08:17:15;26.80;;;19.38;;
24961;SDS011;12992;50.884;13.668;2022-08-19T08:19:42;29.10;;;19.20;;
24961;SDS011;12992;50.884;13.668;2022-08-19T08:22:09;24.88;;;17.98;;
24961;SDS011;12992;50.884;13.668;2022-08-19T08:24:55;24.85;;;18.63;;
24961;SDS011;12992;50.884;13.668;2022-08-19T08:27:23;23.98;;;16.65;;
24961;SDS011;12992;50.884;13.668;2022-08-19T08:29:49;26.52;;;18.17;;
24961;SDS011;12992;50.884;13.668;2022-08-19T08:32:14;25.08;;;18.52;;
24961;SDS011;12992;50.884;13.668;2022-08-19T08:34:39;27.98;;;19.50;;
24961;SDS011;12992;50.884;13.668;2022-08-19T08:37:05;24.85;;;18.05;;
24961;SDS011;12992;50.884;13.668;2022-08-19T08:39:30;22.63;;;17.98;;
24961;SDS011;12992;50.884;13.668;2022-08-19T08:47:26;24.60;;;16.85;;
24961;SDS011;12992;50.884;13.668;2022-08-19T08:49:59;21.53;;;16.83;;
24961;SDS011;12992;50.884;13.668;2022-08-19T08:52:43;19.50;;;13.77;;
24961;SDS011;12992;50.884;13.668;2022-08-19T08:55:12;23.73;;;15.82;;
24961;SDS011;12992;50.884;13.668;2022-08-19T09:00:15;27.17;;;17.97;;
24961;SDS011;12992;50.884;13.668;2022-08-19T09:02:44;29.42;;;20.67;;
24961;SDS011;12992;50.884;13.668;2022-08-19T09:05:10;26.45;;;19.73;;
24961;SDS011;12992;50.884;13.668;2022-08-19T09:07:41;25.55;;;19.88;;
24961;SDS011;12992;50.884;13.668;2022-08-19T09:15:42;24.58;;;18.00;;
24961;SDS011;12992;50.884;13.668;2022-08-19T09:18:13;22.27;;;15.90;;
24961;SDS011;12992;50.884;13.668;2022-08-19T09:20:38;22.85;;;16.75;;
24961;SDS011;12992;50.884;13.668;2022-08-19T09:23:04;22.00;;;16.23;;
24961;SDS011;12992;50.884;13.668;2022-08-19T09:25:29;21.88;;;17.15;;
24961;SDS011;12992;50.884;13.668;2022-08-19T09:27:57;20.58;;;16.00;;
24961;SDS011;12992;50.884;13.668;2022-08-19T09:30:28;19.85;;;16.08;;
24961;SDS011;12992;50.884;13.668;2022-08-19T09:32:55;18.83;;;13.98;;
24961;SDS011;12992;50.884;13.668;2022-08-19T09:35:21;19.77;;;14.10;;
24961;SDS011;12992;50.884;13.668;2022-08-19T09:37:48;17.65;;;13.68;;
24961;SDS011;12992;50.884;13.668;2022-08-19T09:40:14;17.33;;;13.32;;
24961;SDS011;12992;50.884;13.668;2022-08-19T09:42:41;16.48;;;13.43;;
24961;SDS011;12992;50.884;13.668;2022-08-19T09:45:08;18.08;;;13.75;;
24961;SDS011;12992;50.884;13.668;2022-08-19T09:47:34;12.93;;;11.07;;
24961;SDS011;12992;50.884;13.668;2022-08-19T09:50:07;13.05;;;11.35;;
24961;SDS011;12992;50.884;13.668;2022-08-19T09:52:34;13.80;;;10.90;;
24961;SDS011;12992;50.884;13.668;2022-08-19T09:55:01;13.30;;;11.02;;
24961;SDS011;12992;50.884;13.668;2022-08-19T09:57:30;11.18;;;9.73;;
24961;SDS011;12992;50.884;13.668;2022-08-19T09:59:55;9.93;;;8.85;;
24961;SDS011;12992;50.884;13.668;2022-08-19T10:02:21;9.93;;;8.93;;
24961;SDS011;12992;50.884;13.668;2022-08-19T10:04:46;11.95;;;8.77;;
24961;SDS011;12992;50.884;13.668;2022-08-19T10:07:30;9.48;;;8.32;;
24961;SDS011;12992;50.884;13.668;2022-08-19T10:09:55;9.65;;;8.25;;
24961;SDS011;12992;50.884;13.668;2022-08-19T10:12:21;9.88;;;8.35;;
24961;SDS011;12992;50.884;13.668;2022-08-19T10:14:47;9.32;;;8.02;;
24961;SDS011;12992;50.884;13.668;2022-08-19T10:17:13;11.43;;;7.72;;
24961;SDS011;12992;50.884;13.668;2022-08-19T10:19:39;9.55;;;8.30;;
24961;SDS011;12992;50.884;13.668;2022-08-19T10:22:06;11.10;;;9.48;;
24961;SDS011;12992;50.884;13.668;2022-08-19T10:24:32;11.57;;;9.23;;
24961;SDS011;12992;50.884;13.668;2022-08-19T10:26:59;11.52;;;9.45;;
24961;SDS011;12992;50.884;13.668;2022-08-19T10:29:25;13.38;;;11.98;;
24961;SDS011;12992;50.884;13.668;2022-08-19T10:31:53;15.95;;;12.57;;
24961;SDS011;12992;50.884;13.668;2022-08-19T10:34:18;14.13;;;12.48;;
24961;SDS011;12992;50.884;13.668;2022-08-19T10:36:44;10.63;;;8.73;;
24961;SDS011;12992;50.884;13.668;2022-08-19T10:39:10;8.80;;;7.90;;
24961;SDS011;12992;50.884;13.668;2022-08-19T10:41:38;11.35;;;9.70;;
24961;SDS011;12992;50.884;13.668;2022-08-19T10:44:08;13.38;;;11.98;;
24961;SDS011;12992;50.884;13.668;2022-08-19T10:46:38;13.13;;;11.35;;
24961;SDS011;12992;50.884;13.668;2022-08-19T10:49:06;13.63;;;11.88;;
24961;SDS011;12992;50.884;13.668;2022-08-19T10:51:33;14.02;;;12.10;;
24961;SDS011;12992;50.884;13.668;2022-08-19T10:54:17;14.00;;;12.60;;
24961;SDS011;12992;50.884;13.668;2022-08-19T10:56:44;17.40;;;13.20;;
24961;SDS011;12992;50.884;13.668;2022-08-19T11:01:48;13.43;;;12.05;;
24961;SDS011;12992;50.884;13.668;2022-08-19T11:04:14;13.70;;;12.20;;
24961;SDS011;12992;50.884;13.668;2022-08-19T11:06:43;11.82;;;10.63;;
24961;SDS011;12992;50.884;13.668;2022-08-19T11:09:12;10.40;;;9.30;;
24961;SDS011;12992;50.884;13.668;2022-08-19T11:11:39;10.18;;;9.18;;
24961;SDS011;12992;50.884;13.668;2022-08-19T11:14:06;8.05;;;7.22;;
24961;SDS011;12992;50.884;13.668;2022-08-19T11:16:35;8.32;;;6.80;;
24961;SDS011;12992;50.884;13.668;2022-08-19T11:19:02;8.25;;;7.38;;
24961;SDS011;12992;50.884;13.668;2022-08-19T11:21:29;10.75;;;9.38;;
24961;SDS011;12992;50.884;13.668;2022-08-19T11:23:58;10.45;;;8.88;;
24961;SDS011;12992;50.884;13.668;2022-08-19T11:26:26;9.68;;;8.20;;
24961;SDS011;12992;50.884;13.668;2022-08-19T11:28:52;8.57;;;7.78;;
24961;SDS011;12992;50.884;13.668;2022-08-19T11:31:20;7.93;;;6.90;;
24961;SDS011;12992;50.884;13.668;2022-08-19T11:33:47;6.95;;;6.30;;
24961;SDS011;12992;50.884;13.668;2022-08-19T11:36:16;8.00;;;6.60;;
24961;SDS011;12992;50.884;13.668;2022-08-19T11:38:42;9.50;;;7.00;;
24961;SDS011;12992;50.884;13.668;2022-08-19T11:41:09;6.43;;;5.50;;
24961;SDS011;12992;50.884;13.668;2022-08-19T11:43:34;7.45;;;6.20;;
24961;SDS011;12992;50.884;13.668;2022-08-19T11:46:03;6.30;;;5.70;;
24961;SDS011;12992;50.884;13.668;2022-08-19T11:48:31;5.40;;;4.90;;
24961;SDS011;12992;50.884;13.668;2022-08-19T11:50:57;4.80;;;4.20;;
24961;SDS011;12992;50.884;13.668;2022-08-19T11:53:22;4.28;;;3.88;;
24961;SDS011;12992;50.884;13.668;2022-08-19T11:55:48;4.50;;;4.10;;
24961;SDS011;12992;50.884;13.668;2022-08-19T11:58:14;3.85;;;3.55;;
24961;SDS011;12992;50.884;13.668;2022-08-19T12:00:42;4.53;;;4.10;;
24961;SDS011;12992;50.884;13.668;2022-08-19T12:03:10;4.55;;;4.15;;
24961;SDS011;12992;50.884;13.668;2022-08-19T12:05:36;5.18;;;4.68;;
24961;SDS011;12992;50.884;13.668;2022-08-19T12:08:03;4.75;;;4.35;;
24961;SDS011;12992;50.884;13.668;2022-08-19T12:10:28;3.60;;;3.30;;
24961;SDS011;12992;50.884;13.668;2022-08-19T12:12:54;3.45;;;3.15;;
24961;SDS011;12992;50.884;13.668;2022-08-19T12:15:19;3.08;;;2.88;;
24961;SDS011;12992;50.884;13.668;2022-08-19T12:17:45;3.47;;;2.90;;
24961;SDS011;12992;50.884;13.668;2022-08-19T12:20:10;3.70;;;3.40;;
24961;SDS011;12992;50.884;13.668;2022-08-19T12:22:38;4.13;;;3.72;;
24961;SDS011;12992;50.884;13.668;2022-08-19T12:25:06;5.32;;;4.10;;
24961;SDS011;12992;50.884;13.668;2022-08-19T12:27:33;7.15;;;4.22;;
24961;SDS011;12992;50.884;13.668;2022-08-19T12:30:00;5.20;;;4.70;;
24961;SDS011;12992;50.884;13.668;2022-08-19T12:32:26;5.90;;;5.25;;
24961;SDS011;12992;50.884;13.668;2022-08-19T12:34:52;5.38;;;4.88;;
24961;SDS011;12992;50.884;13.668;2022-08-19T12:37:17;6.25;;;5.65;;
24961;SDS011;12992;50.884;13.668;2022-08-19T12:39:43;7.13;;;6.47;;
24961;SDS011;12992;50.884;13.668;2022-08-19T12:42:12;7.15;;;6.40;;
24961;SDS011;12992;50.884;13.668;2022-08-19T12:44:39;6.30;;;5.68;;
24961;SDS011;12992;50.884;13.668;2022-08-19T12:47:06;8.20;;;7.38;;
24961;SDS011;12992;50.884;13.668;2022-08-19T12:49:32;8.98;;;8.07;;
24961;SDS011;12992;50.884;13.668;2022-08-19T12:52:00;8.45;;;7.65;;
24961;SDS011;12992;50.884;13.668;2022-08-19T12:54:26;9.75;;;8.02;;
24961;SDS011;12992;50.884;13.668;2022-08-19T12:56:52;10.82;;;9.73;;
24961;SDS011;12992;50.884;13.668;2022-08-19T12:59:17;10.70;;;9.60;;
24961;SDS011;12992;50.884;13.668;2022-08-19T13:01:44;13.30;;;11.90;;
24961;SDS011;12992;50.884;13.668;2022-08-19T13:04:10;13.60;;;11.38;;
24961;SDS011;12992;50.884;13.668;2022-08-19T13:06:35;15.80;;;13.00;;
24961;SDS011;12992;50.884;13.668;2022-08-19T13:09:02;17.35;;;14.13;;
24961;SDS011;12992;50.884;13.668;2022-08-19T13:11:30;14.07;;;12.57;;
24961;SDS011;12992;50.884;13.668;2022-08-19T13:13:58;15.63;;;13.93;;
24961;SDS011;12992;50.884;13.668;2022-08-19T13:16:25;16.50;;;14.73;;
24961;SDS011;12992;50.884;13.668;2022-08-19T13:18:52;18.00;;;14.73;;
24961;SDS011;12992;50.884;13.668;2022-08-19T13:21:18;17.42;;;15.13;;
24961;SDS011;12992;50.884;13.668;2022-08-19T13:23:45;18.75;;;15.45;;
24961;SDS011;12992;50.884;13.668;2022-08-19T13:26:11;18.65;;;16.23;;
24961;SDS011;12992;50.884;13.668;2022-08-19T13:28:38;17.70;;;15.85;;
24961;SDS011;12992;50.884;13.668;2022-08-19T13:31:23;19.40;;;16.17;;
24961;SDS011;12992;50.884;13.668;2022-08-19T13:34:08;19.35;;;16.65;;
24961;SDS011;12992;50.884;13.668;2022-08-19T13:36:34;18.88;;;16.63;;
24961;SDS011;12992;50.884;13.668;2022-08-19T13:39:01;20.33;;;17.15;;
24961;SDS011;12992;50.884;13.668;2022-08-19T13:41:26;22.65;;;19.95;;
24961;SDS011;12992;50.884;13.668;2022-08-19T13:43:52;21.85;;;18.95;;
24961;SDS011;12992;50.884;13.668;2022-08-19T13:46:19;22.95;;;19.88;;
24961;SDS011;12992;50.884;13.668;2022-08-19T13:48:45;24.52;;;20.52;;
24961;SDS011;12992;50.884;13.668;2022-08-19T13:51:11;25.88;;;21.58;;
24961;SDS011;12992;50.884;13.668;2022-08-19T13:53:37;27.25;;;22.00;;
24961;SDS011;12992;50.884;13.668;2022-08-19T13:56:07;26.75;;;21.33;;
24961;SDS011;12992;50.884;13.668;2022-08-19T13:58:35;27.67;;;21.95;;
24961;SDS011;12992;50.884;13.668;2022-08-19T14:01:01;27.80;;;23.23;;
24961;SDS011;12992;50.884;13.668;2022-08-19T14:03:27;30.55;;;24.08;;
24961;SDS011;12992;50.884;13.668;2022-08-19T14:05:52;30.00;;;24.02;;
24961;SDS011;12992;50.884;13.668;2022-08-19T14:08:18;31.52;;;24.02;;
24961;SDS011;12992;50.884;13.668;2022-08-19T14:10:43;33.60;;;25.95;;
24961;SDS011;12992;50.884;13.668;2022-08-19T14:13:09;37.67;;;28.98;;
24961;SDS011;12992;50.884;13.668;2022-08-19T14:15:37;46.72;;;30.90;;
24961;SDS011;12992;50.884;13.668;2022-08-19T14:18:02;45.42;;;29.50;;
24961;SDS011;12992;50.884;13.668;2022-08-19T14:20:28;48.38;;;31.75;;
24961;SDS011;12992;50.884;13.668;2022-08-19T14:22:53;47.63;;;32.53;;
24961;SDS011;12992;50.884;13.668;2022-08-19T14:25:23;49.78;;;33.45;;
24961;SDS011;12992;50.884;13.668;2022-08-19T14:27:50;53.08;;;35.03;;
24961;SDS011;12992;50.884;13.668;2022-08-19T14:30:22;52.17;;;32.72;;
24961;SDS011;12992;50.884;13.668;2022-08-19T14:32:51;47.67;;;32.63;;
24961;SDS011;12992;50.884;13.668;2022-08-19T14:35:17;48.80;;;33.08;;